Humidity-temperature Sensor

Selected Measurement Type: Air Temperature

 
Air Temperature [°C]     6 entries per hour
Showing data from 8/23/2020 (00:00:00 Z) to 8/22/2020 (00:01:00 Z)
Previous Next [ Day | 3-Days | 7-Days ]
First Last
Prev [ Day | 3-Days | 7-Days ] Next
First Last

Start Time:     :
End Time:     :     
Time (in GMT) :00 :50 :40 :30 :20 :10
Previous Next [ Day | 3-Days | 7-Days ]
First Last
Prev [ Day | 3-Days | 7-Days ] Next
First Last


123 => good data
MM => data is determined as missing
-- => data not received/configured
Back to Top Back to Top
8/23/2020 00:00 to 23:10 28.02 28.22 28.18 28.19 28.10 28.09
8/22/2020 23:00 to 22:10 27.97 28.14 28.08 28.12 28.13 28.15
8/22/2020 22:00 to 21:10 27.98 28.16 27.94 27.93 28.07 28.01
8/22/2020 21:00 to 20:10 28.05 28.01 28.08 27.97 28.04 28.16
8/22/2020 20:00 to 19:10 27.93 28.05 28.00 28.08 28.26 27.96
8/22/2020 19:00 to 18:10 28.16 28.13 28.12 28.12 28.03 27.80
8/22/2020 18:00 to 17:10 27.93 28.04 28.00 27.87 27.63 27.57
8/22/2020 17:00 to 16:10 27.51 27.59 27.59 27.61 27.66 27.51
8/22/2020 16:00 to 15:10 27.52 27.79 27.68 27.58 27.72 27.66
8/22/2020 15:00 to 14:10 27.79 27.68 27.67 27.68 27.65 27.76
8/22/2020 14:00 to 13:10 27.68 27.87 27.72 27.85 27.82 27.82
8/22/2020 13:00 to 12:10 27.78 27.83 27.89 27.79 27.84 27.91
8/22/2020 12:00 to 11:10 27.91 27.88 27.96 27.88 27.97 27.97
8/22/2020 11:00 to 10:10 27.85 27.89 27.93 28.05 27.86 27.96
8/22/2020 10:00 to 9:10 28.01 28.03 28.13 28.30 28.32 28.26
8/22/2020 09:00 to 8:10 28.33 28.26 28.22 28.32 28.31 28.31
8/22/2020 08:00 to 7:10 28.27 28.31 28.41 28.30 28.34 28.36
8/22/2020 07:00 to 6:10 28.38 28.35 28.33 28.38 28.32 28.32
8/22/2020 06:00 to 5:10 28.30 28.41 28.34 28.27 28.31 28.36
8/22/2020 05:00 to 4:10 28.37 28.35 28.43 28.48 28.32 28.29
8/22/2020 04:00 to 3:10 28.40 28.43 28.43 28.45 28.43 28.56
8/22/2020 03:00 to 2:10 28.43 28.45 28.26 28.34 28.37 28.42
8/22/2020 02:00 to 1:10 28.38 28.42 28.38 28.31 28.46 28.51
8/22/2020 01:00 to 0:10 28.55 28.62 28.38 28.28 28.16 28.19